createdAt,value
2018-04-07T00:01:40.718Z,6.78
2018-04-07T00:02:40.646Z,6.79
2018-04-07T00:04:32.386Z,6.68
2018-04-07T00:05:32.325Z,6.78
2018-04-07T00:07:24.089Z,6.75
2018-04-07T00:08:23.998Z,6.82
2018-04-07T00:10:15.758Z,6.82
2018-04-07T00:11:15.680Z,6.81
2018-04-07T00:13:07.431Z,6.81
2018-04-07T00:14:07.364Z,6.76
2018-04-07T00:15:59.134Z,6.78
2018-04-07T00:16:59.076Z,6.78
2018-04-07T00:18:50.819Z,6.86
2018-04-07T00:19:50.751Z,6.82
2018-04-07T00:21:42.504Z,6.72
2018-04-07T00:22:42.428Z,6.78
2018-04-07T00:24:34.175Z,6.61
2018-04-07T00:25:34.105Z,6.63
2018-04-07T00:27:25.872Z,6.50
2018-04-07T00:28:25.796Z,6.51
2018-04-07T00:30:17.551Z,6.39
2018-04-07T00:31:17.475Z,6.40
2018-04-07T00:33:09.249Z,6.30
2018-04-07T00:34:09.172Z,6.28
2018-04-07T00:36:00.942Z,6.27
2018-04-07T00:37:00.862Z,6.27
2018-04-07T00:38:52.621Z,6.14
2018-04-07T00:39:52.534Z,6.10
2018-04-07T00:41:44.289Z,5.93
2018-04-07T00:42:44.210Z,5.90
2018-04-07T00:44:35.971Z,5.78
2018-04-07T00:45:35.905Z,5.70
2018-04-07T00:47:27.666Z,5.73
2018-04-07T00:48:27.633Z,5.70
2018-04-07T00:50:19.327Z,5.56
2018-04-07T00:51:19.260Z,5.47
2018-04-07T00:53:11.013Z,5.30
2018-04-07T00:54:10.931Z,5.29
2018-04-07T00:56:02.722Z,5.33
2018-04-07T00:57:02.611Z,5.23
2018-04-07T00:58:54.363Z,5.19
2018-04-07T00:59:54.294Z,5.15
2018-04-07T01:01:46.054Z,5.17
2018-04-07T01:02:45.977Z,5.11
2018-04-07T01:04:37.737Z,5.06
2018-04-07T01:05:37.670Z,5.05
2018-04-07T01:07:29.422Z,5.04
2018-04-07T01:08:29.342Z,5.04
2018-04-07T01:10:21.093Z,5.08
2018-04-07T01:11:21.029Z,5.04
2018-04-07T01:13:12.782Z,5.08
2018-04-07T01:14:12.703Z,5.09
2018-04-07T01:16:04.447Z,5.15
2018-04-07T01:17:04.382Z,5.12
2018-04-07T01:18:56.160Z,5.26
2018-04-07T01:19:56.074Z,5.35
2018-04-07T01:21:47.837Z,5.58
2018-04-07T01:22:47.765Z,5.63
2018-04-07T01:24:39.510Z,5.75
2018-04-07T01:25:39.438Z,5.88
2018-04-07T01:27:31.189Z,5.95
2018-04-07T01:28:31.114Z,6.02
2018-04-07T01:30:22.852Z,6.14
2018-04-07T01:31:22.786Z,6.24
2018-04-07T01:33:14.548Z,6.13
2018-04-07T01:34:14.462Z,6.21
2018-04-07T01:36:06.206Z,6.27
2018-04-07T01:37:06.135Z,6.24
2018-04-07T01:38:57.909Z,6.13
2018-04-07T01:39:57.824Z,6.11
2018-04-07T01:41:49.584Z,6.17
2018-04-07T01:42:49.510Z,6.19
2018-04-07T01:44:41.247Z,6.10
2018-04-07T01:45:41.188Z,6.20
2018-04-07T01:47:32.968Z,6.38
2018-04-07T01:48:32.892Z,6.32
2018-04-07T01:50:24.636Z,6.36
2018-04-07T01:51:24.566Z,6.51
2018-04-07T01:53:16.322Z,6.58
2018-04-07T01:54:16.242Z,6.60
2018-04-07T01:56:07.997Z,6.48
2018-04-07T01:57:07.923Z,6.48
2018-04-07T01:58:59.683Z,6.60
2018-04-07T01:59:59.606Z,6.61
2018-04-07T02:01:51.377Z,6.61
2018-04-07T02:02:51.311Z,6.53
2018-04-07T02:04:43.068Z,6.50
2018-04-07T02:05:42.986Z,6.51
2018-04-07T02:07:34.743Z,6.46
2018-04-07T02:08:34.668Z,6.46
2018-04-07T02:10:26.413Z,6.65
2018-04-07T02:11:26.344Z,6.65
2018-04-07T02:13:18.107Z,6.71
2018-04-07T02:14:18.030Z,6.71
2018-04-07T02:16:09.784Z,6.76
2018-04-07T02:17:09.720Z,6.60
2018-04-07T02:19:01.489Z,6.76
2018-04-07T02:20:01.416Z,6.65
2018-04-07T02:21:53.150Z,6.63
2018-04-07T02:22:53.083Z,6.61
2018-04-07T02:24:44.837Z,6.39
2018-04-07T02:25:44.754Z,6.33
2018-04-07T02:27:36.551Z,6.28
2018-04-07T02:28:36.434Z,6.19
2018-04-07T02:30:28.187Z,6.19
2018-04-07T02:31:28.117Z,6.25
2018-04-07T02:33:19.876Z,6.28
2018-04-07T02:34:19.799Z,6.19
2018-04-07T02:36:11.538Z,6.13
2018-04-07T02:37:11.471Z,6.06
2018-04-07T02:39:03.221Z,5.99
2018-04-07T02:40:03.146Z,5.96
2018-04-07T02:41:54.898Z,5.96
2018-04-07T02:42:54.828Z,5.93
2018-04-07T02:44:46.619Z,5.96
2018-04-07T02:45:46.530Z,5.95
2018-04-07T02:47:38.285Z,6.13
2018-04-07T02:48:38.222Z,6.17
2018-04-07T02:50:29.985Z,6.16
2018-04-07T02:51:29.898Z,6.19
2018-04-07T02:53:21.660Z,6.21
2018-04-07T02:54:21.592Z,6.10
2018-04-07T02:56:13.321Z,6.20
2018-04-07T02:57:13.254Z,6.30
2018-04-07T02:59:05.029Z,6.43
2018-04-07T03:00:04.950Z,6.35
2018-04-07T03:01:56.693Z,6.39
2018-04-07T03:02:56.619Z,6.40
2018-04-07T03:04:48.389Z,6.51
2018-04-07T03:05:48.306Z,6.57
2018-04-07T03:07:40.058Z,6.64
2018-04-07T03:08:39.990Z,6.71
2018-04-07T03:10:31.751Z,6.76
2018-04-07T03:11:31.673Z,6.75
2018-04-07T03:13:23.443Z,6.60
2018-04-07T03:14:23.354Z,6.60
2018-04-07T03:16:15.107Z,6.65
2018-04-07T03:17:15.045Z,6.71
2018-04-07T03:19:06.796Z,6.72
2018-04-07T03:20:06.715Z,6.65
2018-04-07T03:21:58.459Z,6.68
2018-04-07T03:22:58.392Z,6.73
2018-04-07T03:24:50.155Z,6.65
2018-04-07T03:25:50.073Z,6.63
2018-04-07T03:27:41.819Z,6.71
2018-04-07T03:28:41.753Z,6.61
2018-04-07T03:30:33.532Z,6.64
2018-04-07T03:31:33.451Z,6.64
2018-04-07T03:33:25.201Z,6.76
2018-04-07T03:34:25.134Z,6.79
2018-04-07T03:36:16.896Z,6.78
2018-04-07T03:37:16.811Z,6.81
2018-04-07T03:39:08.579Z,6.87
2018-04-07T03:40:08.490Z,6.82
2018-04-07T03:42:00.244Z,6.90
2018-04-07T03:43:00.177Z,6.90
2018-04-07T03:44:51.992Z,6.75
2018-04-07T03:45:51.913Z,6.94
2018-04-07T03:47:43.668Z,6.99
2018-04-07T03:48:43.601Z,7.05
2018-04-07T03:50:35.349Z,7.07
2018-04-07T03:51:35.273Z,7.00
2018-04-07T03:53:27.018Z,7.00
2018-04-07T03:54:26.948Z,6.91
2018-04-07T03:56:18.726Z,6.99
2018-04-07T03:57:18.636Z,6.97
2018-04-07T03:59:10.424Z,6.99
2018-04-07T04:00:10.304Z,7.09
2018-04-07T04:02:02.056Z,6.96
2018-04-07T04:03:01.984Z,7.12
2018-04-07T04:04:53.736Z,7.09
2018-04-07T04:05:53.656Z,7.07
2018-04-07T04:07:45.406Z,7.12
2018-04-07T04:08:45.337Z,7.07
2018-04-07T04:10:37.094Z,7.14
2018-04-07T04:11:37.025Z,7.11
2018-04-07T04:13:28.771Z,7.14
2018-04-07T04:14:28.701Z,7.14
2018-04-07T04:16:20.459Z,7.08
2018-04-07T04:17:20.385Z,7.04
2018-04-07T04:19:12.122Z,7.07
2018-04-07T04:20:12.059Z,7.05
2018-04-07T04:22:03.817Z,7.15
2018-04-07T04:23:03.740Z,7.19
2018-04-07T04:24:55.486Z,7.12
2018-04-07T04:25:55.411Z,7.07
2018-04-07T04:27:47.161Z,7.14
2018-04-07T04:28:47.104Z,7.14
2018-04-07T04:30:38.853Z,7.04
2018-04-07T04:31:38.780Z,7.11
2018-04-07T04:33:30.525Z,7.00
2018-04-07T04:34:30.464Z,7.09
2018-04-07T04:36:22.224Z,7.09
2018-04-07T04:37:22.142Z,7.18
2018-04-07T04:39:13.893Z,7.24
2018-04-07T04:40:13.822Z,7.29
2018-04-07T04:42:05.602Z,7.32
2018-04-07T04:43:05.513Z,7.33
2018-04-07T04:44:57.286Z,7.44
2018-04-07T04:45:57.196Z,7.33
2018-04-07T04:47:48.945Z,7.44
2018-04-07T04:48:48.877Z,7.44
2018-04-07T04:50:40.634Z,7.48
2018-04-07T04:51:40.555Z,7.54
2018-04-07T04:53:32.306Z,7.57
2018-04-07T04:54:32.241Z,7.57
2018-04-07T04:56:24.004Z,7.66
2018-04-07T04:57:23.927Z,7.62
2018-04-07T04:59:15.667Z,7.74
2018-04-07T05:00:15.633Z,7.82
2018-04-07T05:02:07.488Z,7.84
2018-04-07T05:03:07.412Z,7.82
2018-04-07T05:04:59.142Z,7.82
2018-04-07T05:05:59.026Z,7.89
2018-04-07T05:07:50.839Z,7.92
2018-04-07T05:08:50.832Z,7.91
2018-04-07T05:10:42.585Z,8.00
2018-04-07T05:11:42.536Z,8.00
2018-04-07T05:13:34.246Z,8.00
2018-04-07T05:14:34.246Z,7.99
2018-04-07T05:16:26.105Z,8.00
2018-04-07T05:17:26.233Z,8.00
2018-04-07T05:19:17.848Z,8.12
2018-04-07T05:20:17.729Z,8.14
2018-04-07T05:22:09.519Z,8.21
2018-04-07T05:23:09.450Z,8.21
2018-04-07T05:25:01.193Z,8.21
2018-04-07T05:26:01.121Z,8.18
2018-04-07T05:27:52.904Z,8.27
2018-04-07T05:28:52.813Z,8.32
2018-04-07T05:30:44.655Z,8.29
2018-04-07T05:31:44.569Z,8.34
2018-04-07T05:33:36.368Z,8.42
2018-04-07T05:34:36.344Z,8.39
2018-04-07T05:36:28.100Z,8.55
2018-04-07T05:37:28.007Z,8.50
2018-04-07T05:39:19.749Z,8.55
2018-04-07T05:40:19.672Z,8.70
2018-04-07T05:42:11.558Z,8.67
2018-04-07T05:43:11.382Z,8.82
2018-04-07T05:45:03.193Z,8.89
2018-04-07T05:46:03.082Z,8.96
2018-04-07T05:47:55.053Z,9.35
2018-04-07T05:48:55.045Z,9.42
2018-04-07T05:50:46.790Z,9.65
2018-04-07T05:51:46.757Z,9.78
2018-04-07T05:53:38.779Z,10.02
2018-04-07T05:54:38.469Z,10.06
2018-04-07T05:56:30.378Z,9.99
2018-04-07T05:57:30.202Z,10.07
2018-04-07T05:59:22.001Z,9.85
2018-04-07T06:00:21.970Z,9.91
2018-04-07T06:02:13.707Z,10.09
2018-04-07T06:03:13.647Z,10.32
2018-04-07T06:05:05.396Z,10.51
2018-04-07T06:06:05.333Z,10.49
2018-04-07T06:07:57.397Z,10.57
2018-04-07T06:08:57.123Z,10.75
2018-04-07T06:10:48.867Z,11.05
2018-04-07T06:11:48.843Z,10.73
2018-04-07T06:13:40.601Z,10.83
2018-04-07T06:14:40.530Z,10.81
2018-04-07T06:16:32.389Z,11.01
2018-04-07T06:17:32.401Z,10.83
2018-04-07T06:19:24.278Z,10.78
2018-04-07T06:20:24.180Z,10.90
2018-04-07T06:22:16.211Z,11.08
2018-04-07T06:23:15.900Z,11.27
2018-04-07T06:25:07.955Z,11.39
2018-04-07T06:26:07.612Z,11.35
2018-04-07T06:27:59.505Z,11.64
2018-04-07T06:28:59.318Z,11.19
2018-04-07T06:30:51.187Z,11.30
2018-04-07T06:31:51.073Z,11.42
2018-04-07T06:33:42.929Z,11.39
2018-04-07T06:34:42.839Z,11.39
2018-04-07T06:36:34.628Z,11.46
2018-04-07T06:37:34.709Z,11.33
2018-04-07T06:39:26.458Z,10.93
2018-04-07T06:40:26.283Z,10.73
2018-04-07T06:42:18.108Z,10.90
2018-04-07T06:43:17.993Z,10.94
2018-04-07T06:45:09.812Z,11.30
2018-04-07T06:46:09.777Z,11.39
2018-04-07T06:48:01.655Z,11.60
2018-04-07T06:49:01.500Z,11.56
2018-04-07T06:50:53.281Z,11.98
2018-04-07T06:51:53.204Z,12.26
2018-04-07T06:53:45.075Z,12.58
2018-04-07T06:54:44.990Z,12.73
2018-04-07T06:56:36.827Z,13.04
2018-04-07T06:57:36.804Z,13.41
2018-04-07T06:59:28.569Z,13.61
2018-04-07T07:00:28.550Z,13.44
2018-04-07T07:02:20.275Z,13.59
2018-04-07T07:03:20.207Z,13.51
2018-04-07T07:05:12.001Z,13.91
2018-04-07T07:06:11.971Z,13.80
2018-04-07T07:08:03.861Z,13.75
2018-04-07T07:09:03.772Z,13.68
2018-04-07T07:10:55.491Z,13.35
2018-04-07T07:11:55.496Z,13.51
2018-04-07T07:13:47.231Z,13.41
2018-04-07T07:14:47.146Z,13.65
2018-04-07T07:16:38.995Z,14.44
2018-04-07T07:17:38.952Z,14.91
2018-04-07T07:19:30.840Z,15.35
2018-04-07T07:20:30.647Z,15.38
2018-04-07T07:22:22.574Z,15.20
2018-04-07T07:23:22.424Z,15.16
2018-04-07T07:25:14.307Z,15.93
2018-04-07T07:26:14.155Z,16.17
2018-04-07T07:28:06.075Z,15.93
2018-04-07T07:29:05.933Z,15.91
2018-04-07T07:30:57.793Z,16.44
2018-04-07T07:31:57.696Z,16.34
2018-04-07T07:33:49.640Z,15.89
2018-04-07T07:34:49.486Z,15.95
2018-04-07T07:36:41.217Z,16.51
2018-04-07T07:37:41.154Z,17.21
2018-04-07T07:39:33.041Z,17.39
2018-04-07T07:40:32.950Z,17.20
2018-04-07T07:42:24.720Z,17.86
2018-04-07T07:43:24.679Z,17.70
2018-04-07T07:45:16.585Z,17.03
2018-04-07T07:46:16.433Z,16.99
2018-04-07T07:48:08.290Z,16.26
2018-04-07T07:49:08.156Z,16.42
2018-04-07T07:50:59.996Z,16.45
2018-04-07T07:51:59.977Z,16.27
2018-04-07T07:53:51.765Z,15.76
2018-04-07T07:54:51.679Z,15.66
2018-04-07T07:56:44.041Z,16.13
2018-04-07T07:57:43.538Z,15.89
2018-04-07T07:59:35.401Z,16.44
2018-04-07T08:00:35.275Z,16.50
2018-04-07T08:02:27.151Z,16.47
2018-04-07T08:03:26.995Z,16.88
2018-04-07T08:05:18.916Z,17.07
2018-04-07T08:06:18.726Z,17.35
2018-04-07T08:08:10.521Z,17.70
2018-04-07T08:09:10.464Z,17.89
2018-04-07T08:11:02.256Z,17.73
2018-04-07T08:12:02.197Z,18.17
2018-04-07T08:13:55.809Z,17.71
2018-04-07T08:14:53.960Z,17.45
2018-04-07T08:16:45.729Z,17.14
2018-04-07T08:17:45.671Z,17.25
2018-04-07T08:19:37.613Z,17.74
2018-04-07T08:20:37.575Z,17.73
2018-04-07T08:22:29.381Z,17.42
2018-04-07T08:23:29.601Z,17.91
2018-04-07T08:25:21.411Z,18.39
2018-04-07T08:26:21.144Z,18.49
2018-04-07T08:28:13.124Z,18.62
2018-04-07T08:29:12.965Z,18.21
2018-04-07T08:31:04.849Z,17.54
2018-04-07T08:32:04.730Z,17.30
2018-04-07T08:33:56.507Z,17.51
2018-04-07T08:34:56.470Z,17.32
2018-04-07T08:36:48.296Z,17.20
2018-04-07T08:37:48.290Z,17.55
2018-04-07T08:39:40.133Z,17.20
2018-04-07T08:40:39.974Z,17.36
2018-04-07T08:42:31.797Z,17.79
2018-04-07T08:43:31.745Z,17.12
2018-04-07T08:45:23.882Z,17.33
2018-04-07T08:46:23.517Z,17.77
2018-04-07T08:48:15.304Z,18.16
2018-04-07T08:49:15.270Z,18.62
2018-04-07T08:51:07.164Z,19.01
2018-04-07T08:52:07.038Z,18.94
2018-04-07T08:53:59.067Z,18.51
2018-04-07T08:54:58.852Z,18.51
2018-04-07T08:56:50.679Z,18.01
2018-04-07T08:57:50.602Z,18.02
2018-04-07T08:59:42.741Z,18.11
2018-04-07T09:00:42.445Z,17.96
2018-04-07T09:02:34.208Z,17.71
2018-04-07T09:03:34.390Z,18.10
2018-04-07T09:05:25.963Z,17.57
2018-04-07T09:06:25.883Z,17.46
2018-04-07T09:08:17.654Z,17.63
2018-04-07T09:09:18.004Z,18.02
2018-04-07T09:11:09.407Z,17.45
2018-04-07T09:12:09.407Z,17.77
2018-04-07T09:14:01.105Z,17.53
2018-04-07T09:15:01.022Z,17.57
2018-04-07T09:16:52.842Z,18.05
2018-04-07T09:17:53.086Z,17.84
2018-04-07T09:19:44.645Z,17.81
2018-04-07T09:20:44.550Z,18.05
2018-04-07T09:22:36.303Z,18.13
2018-04-07T09:23:36.244Z,18.46
2018-04-07T09:25:28.353Z,19.20
2018-04-07T09:26:28.086Z,19.21
2018-04-07T09:28:19.807Z,19.32
2018-04-07T09:29:19.903Z,19.21
2018-04-07T09:31:11.595Z,18.25
2018-04-07T09:32:11.496Z,18.07
2018-04-07T09:34:03.434Z,18.19
2018-04-07T09:35:03.387Z,18.35
2018-04-07T09:36:55.203Z,18.83
2018-04-07T09:37:55.122Z,19.01
2018-04-07T09:39:46.986Z,18.83
2018-04-07T09:40:46.938Z,18.69
2018-04-07T09:42:38.760Z,18.19
2018-04-07T09:43:38.750Z,18.35
2018-04-07T09:45:30.738Z,19.09
2018-04-07T09:46:30.568Z,19.60
2018-04-07T09:48:22.316Z,19.90
2018-04-07T09:49:22.464Z,19.85
2018-04-07T09:51:15.174Z,19.94
2018-04-07T09:52:14.192Z,20.37
2018-04-07T09:54:06.282Z,20.34
2018-04-07T09:55:06.121Z,20.40
2018-04-07T09:56:57.822Z,20.66
2018-04-07T09:57:57.790Z,20.71
2018-04-07T09:59:49.531Z,20.31
2018-04-07T10:00:49.556Z,20.22
2018-04-07T10:02:41.508Z,19.76
2018-04-07T10:03:41.333Z,19.25
2018-04-07T10:05:33.329Z,19.31
2018-04-07T10:06:33.269Z,19.55
2018-04-07T10:08:25.019Z,19.42
2018-04-07T10:09:24.961Z,19.20
2018-04-07T10:11:17.058Z,19.79
2018-04-07T10:12:16.787Z,20.02
2018-04-07T10:14:10.396Z,19.85
2018-04-07T10:15:08.575Z,19.70
2018-04-07T10:17:01.417Z,19.43
2018-04-07T10:18:01.350Z,19.62
2018-04-07T10:19:53.160Z,19.52
2018-04-07T10:20:53.145Z,19.39
2018-04-07T10:22:45.353Z,19.25
2018-04-07T10:23:45.061Z,19.17
2018-04-07T10:25:36.854Z,18.97
2018-04-07T10:26:36.775Z,18.82
2018-04-07T10:28:28.693Z,18.76
2018-04-07T10:29:28.517Z,19.01
2018-04-07T10:31:20.503Z,19.24
2018-04-07T10:32:20.486Z,19.21
2018-04-07T10:34:12.238Z,19.67
2018-04-07T10:35:12.164Z,19.62
2018-04-07T10:37:03.999Z,19.68
2018-04-07T10:38:04.037Z,20.07
2018-04-07T10:39:56.498Z,20.31
2018-04-07T10:40:56.392Z,20.30
2018-04-07T10:42:48.301Z,19.98
2018-04-07T10:43:48.200Z,20.05
2018-04-07T10:45:40.951Z,19.53
2018-04-07T10:46:40.701Z,19.64
2018-04-07T10:48:33.164Z,19.82
2018-04-07T10:49:33.111Z,19.89
2018-04-07T10:51:26.726Z,20.04
2018-04-07T10:52:26.540Z,19.95
2018-04-07T10:54:18.909Z,19.85
2018-04-07T10:55:18.813Z,19.70
2018-04-07T10:57:10.859Z,19.95
2018-04-07T10:58:10.635Z,20.01
2018-04-07T11:00:02.536Z,20.41
2018-04-07T11:01:02.438Z,20.30
2018-04-07T11:02:56.181Z,19.80
2018-04-07T11:03:56.032Z,19.32
2018-04-07T11:05:48.692Z,19.10
2018-04-07T11:06:48.502Z,18.79
2018-04-07T11:08:40.952Z,18.71
2018-04-07T11:09:40.869Z,18.57
2018-04-07T11:11:33.569Z,18.39
2018-04-07T11:12:33.414Z,18.39
2018-04-07T11:14:25.201Z,18.02
2018-04-07T11:15:25.147Z,17.94
2018-04-07T11:17:17.006Z,17.98
2018-04-07T11:18:16.979Z,18.01
2018-04-07T11:20:08.696Z,17.79
2018-04-07T11:21:08.640Z,17.77
2018-04-07T11:23:00.427Z,17.81
2018-04-07T11:24:00.354Z,17.87
2018-04-07T11:25:52.185Z,17.83
2018-04-07T11:26:52.120Z,17.71
2018-04-07T11:28:43.908Z,17.49
2018-04-07T11:29:43.906Z,17.43
2018-04-07T11:31:35.673Z,17.53
2018-04-07T11:32:35.554Z,17.42
2018-04-07T11:34:27.454Z,17.51
2018-04-07T11:35:27.274Z,17.43
2018-04-07T11:37:19.092Z,17.36
2018-04-07T11:38:19.008Z,17.51
2018-04-07T11:40:10.793Z,17.43
2018-04-07T11:41:10.736Z,17.45
2018-04-07T11:43:02.579Z,17.42
2018-04-07T11:44:02.519Z,17.49
2018-04-07T11:45:54.365Z,17.39
2018-04-07T11:46:54.358Z,17.38
2018-04-07T11:48:46.175Z,17.42
2018-04-07T11:49:46.125Z,17.42
2018-04-07T11:51:38.479Z,17.58
2018-04-07T11:52:37.847Z,17.62
2018-04-07T11:54:30.058Z,17.74
2018-04-07T11:55:29.823Z,17.80
2018-04-07T11:57:21.652Z,17.91
2018-04-07T11:58:21.566Z,17.87
2018-04-07T12:00:13.352Z,17.86
2018-04-07T12:01:13.288Z,17.95
2018-04-07T12:03:05.096Z,18.13
2018-04-07T12:04:05.017Z,18.10
2018-04-07T12:05:56.784Z,18.04
2018-04-07T12:06:56.815Z,17.96
2018-04-07T12:08:48.589Z,17.92
2018-04-07T12:09:48.463Z,17.89
2018-04-07T12:11:40.312Z,18.13
2018-04-07T12:12:40.201Z,18.13
2018-04-07T12:14:31.965Z,18.25
2018-04-07T12:15:31.910Z,18.10
2018-04-07T12:17:23.725Z,18.29
2018-04-07T12:18:23.630Z,18.11
2018-04-07T12:20:15.404Z,17.94
2018-04-07T12:21:15.333Z,18.04
2018-04-07T12:23:07.111Z,18.10
2018-04-07T12:24:07.035Z,18.19
2018-04-07T12:25:58.943Z,18.20
2018-04-07T12:26:58.846Z,18.28
2018-04-07T12:28:50.646Z,18.49
2018-04-07T12:29:50.655Z,18.64
2018-04-07T12:31:42.396Z,18.32
2018-04-07T12:32:42.389Z,18.25
2018-04-07T12:34:34.193Z,18.54
2018-04-07T12:35:34.085Z,18.65
2018-04-07T12:37:25.875Z,18.60
2018-04-07T12:38:25.783Z,18.60
2018-04-07T12:40:18.244Z,18.72
2018-04-07T12:41:17.586Z,18.74
2018-04-07T12:43:09.485Z,18.84
2018-04-07T12:44:09.387Z,18.94
2018-04-07T12:46:01.157Z,18.96
2018-04-07T12:47:01.094Z,18.94
2018-04-07T12:48:52.876Z,19.05
2018-04-07T12:49:52.796Z,18.96
2018-04-07T12:51:44.609Z,18.91
2018-04-07T12:52:44.532Z,19.02
2018-04-07T12:54:36.296Z,19.10
2018-04-07T12:55:36.239Z,19.15
2018-04-07T12:57:28.118Z,19.30
2018-04-07T12:58:28.031Z,19.23
2018-04-07T13:00:19.815Z,19.24
2018-04-07T13:01:19.752Z,19.07
2018-04-07T13:03:12.173Z,19.20
2018-04-07T13:04:11.457Z,19.17
2018-04-07T13:06:03.269Z,19.13
2018-04-07T13:07:03.243Z,19.15
2018-04-07T13:08:55.135Z,19.16
2018-04-07T13:09:54.916Z,19.16
2018-04-07T13:11:46.731Z,19.30
2018-04-07T13:12:46.661Z,19.13
2018-04-07T13:14:38.444Z,19.32
2018-04-07T13:15:38.367Z,19.32
2018-04-07T13:17:30.145Z,19.30
2018-04-07T13:18:30.082Z,19.31
2018-04-07T13:20:21.921Z,19.32
2018-04-07T13:21:21.809Z,19.28
2018-04-07T13:23:13.599Z,19.38
2018-04-07T13:24:13.546Z,19.49
2018-04-07T13:26:05.306Z,19.35
2018-04-07T13:27:05.248Z,19.34
2018-04-07T13:28:57.048Z,19.53
2018-04-07T13:29:56.931Z,19.58
2018-04-07T13:31:48.692Z,19.64
2018-04-07T13:32:48.644Z,19.61
2018-04-07T13:34:40.497Z,19.65
2018-04-07T13:35:40.436Z,19.75
2018-04-07T13:37:32.236Z,19.76
2018-04-07T13:38:32.130Z,19.76
2018-04-07T13:40:23.941Z,19.82
2018-04-07T13:41:23.856Z,19.75
2018-04-07T13:43:15.648Z,19.67
2018-04-07T13:44:15.653Z,19.58
2018-04-07T13:46:07.360Z,19.71
2018-04-07T13:47:07.290Z,19.78
2018-04-07T13:48:59.075Z,19.65
2018-04-07T13:49:59.003Z,19.76
2018-04-07T13:51:50.798Z,19.97
2018-04-07T13:52:50.727Z,20.01
2018-04-07T13:54:42.506Z,20.04
2018-04-07T13:55:42.458Z,20.04
2018-04-07T13:57:34.211Z,20.23
2018-04-07T13:58:34.148Z,20.19
2018-04-07T14:00:25.996Z,20.05
2018-04-07T14:01:25.916Z,20.08
2018-04-07T14:03:17.730Z,20.12
2018-04-07T14:04:17.624Z,20.07
2018-04-07T14:06:09.433Z,20.20
2018-04-07T14:07:09.363Z,20.22
2018-04-07T14:09:01.174Z,20.19
2018-04-07T14:10:01.141Z,20.13
2018-04-07T14:11:52.991Z,20.22
2018-04-07T14:12:52.912Z,20.22
2018-04-07T14:14:44.729Z,20.38
2018-04-07T14:15:44.683Z,20.34
2018-04-07T14:17:36.424Z,20.51
2018-04-07T14:18:36.294Z,20.54
2018-04-07T14:20:28.314Z,20.58
2018-04-07T14:21:28.101Z,20.57
2018-04-07T14:23:19.899Z,20.54
2018-04-07T14:24:19.821Z,20.54
2018-04-07T14:26:11.635Z,20.53
2018-04-07T14:27:11.695Z,20.57
2018-04-07T14:29:03.405Z,20.78
2018-04-07T14:30:03.265Z,20.82
2018-04-07T14:31:55.060Z,20.73
2018-04-07T14:32:54.962Z,20.79
2018-04-07T14:34:46.812Z,20.78
2018-04-07T14:35:46.722Z,20.68
2018-04-07T14:37:38.488Z,20.58
2018-04-07T14:38:38.417Z,20.68
2018-04-07T14:40:30.210Z,20.64
2018-04-07T14:41:30.156Z,20.69
2018-04-07T14:43:21.923Z,20.64
2018-04-07T14:44:21.866Z,20.56
2018-04-07T14:46:13.634Z,20.56
2018-04-07T14:47:13.555Z,20.56
2018-04-07T14:49:05.357Z,20.69
2018-04-07T14:50:05.266Z,20.72
2018-04-07T14:51:57.042Z,20.78
2018-04-07T14:52:57.041Z,20.81
2018-04-07T14:54:48.810Z,20.88
2018-04-07T14:55:48.721Z,20.78
2018-04-07T14:57:40.546Z,20.90
2018-04-07T14:58:40.466Z,20.96
2018-04-07T15:00:32.306Z,20.96
2018-04-07T15:01:32.185Z,20.91
2018-04-07T15:03:24.028Z,20.91
2018-04-07T15:04:23.944Z,20.97
2018-04-07T15:06:15.760Z,21.03
2018-04-07T15:07:15.670Z,20.97
2018-04-07T15:09:07.472Z,20.93
2018-04-07T15:10:07.455Z,20.90
2018-04-07T15:11:59.160Z,21.00
2018-04-07T15:12:59.099Z,20.98
2018-04-07T15:14:50.878Z,20.91
2018-04-07T15:15:50.798Z,20.90
2018-04-07T15:17:42.683Z,20.85
2018-04-07T15:18:42.547Z,20.87
2018-04-07T15:20:34.332Z,20.91
2018-04-07T15:21:34.304Z,20.93
2018-04-07T15:23:26.041Z,20.96
2018-04-07T15:24:26.044Z,20.88
2018-04-07T15:26:17.846Z,20.85
2018-04-07T15:27:17.731Z,20.91
2018-04-07T15:29:09.508Z,20.91
2018-04-07T15:30:09.420Z,20.91
2018-04-07T15:32:01.247Z,20.81
2018-04-07T15:33:01.185Z,20.82
2018-04-07T15:34:52.973Z,20.87
2018-04-07T15:35:52.888Z,20.85
2018-04-07T15:37:44.675Z,20.83
2018-04-07T15:38:44.615Z,20.88
2018-04-07T15:40:36.398Z,20.96
2018-04-07T15:41:36.325Z,20.91
2018-04-07T15:43:28.094Z,20.96
2018-04-07T15:44:28.031Z,20.88
2018-04-07T15:46:19.848Z,20.83
2018-04-07T15:47:19.789Z,20.94
2018-04-07T15:49:11.576Z,20.81
2018-04-07T15:50:11.484Z,20.79
2018-04-07T15:52:03.278Z,20.85
2018-04-07T15:53:03.196Z,20.91
2018-04-07T15:54:55.024Z,20.83
2018-04-07T15:55:54.916Z,20.85
2018-04-07T15:57:46.701Z,20.88
2018-04-07T15:58:46.619Z,20.96
2018-04-07T16:00:38.421Z,20.85
2018-04-07T16:01:38.350Z,20.97
2018-04-07T16:03:30.164Z,20.83
2018-04-07T16:04:30.088Z,20.91
2018-04-07T16:06:21.882Z,20.85
2018-04-07T16:07:21.783Z,20.78
2018-04-07T16:09:13.569Z,20.94
2018-04-07T16:10:13.507Z,20.83
2018-04-07T16:12:05.277Z,20.85
2018-04-07T16:13:05.190Z,20.82
2018-04-07T16:14:56.964Z,20.83
2018-04-07T16:15:56.888Z,20.76
2018-04-07T16:17:48.679Z,20.76
2018-04-07T16:18:48.609Z,20.76
2018-04-07T16:20:40.398Z,20.71
2018-04-07T16:21:40.319Z,20.68
2018-04-07T16:23:32.116Z,20.78
2018-04-07T16:24:32.030Z,20.72
2018-04-07T16:26:23.851Z,20.75
2018-04-07T16:27:23.922Z,20.82
2018-04-07T16:29:15.527Z,20.75
2018-04-07T16:30:15.464Z,20.78
2018-04-07T16:32:07.437Z,20.78
2018-04-07T16:33:07.335Z,20.76
2018-04-07T16:34:59.100Z,20.76
2018-04-07T16:35:58.966Z,20.78
2018-04-07T16:37:50.769Z,20.66
2018-04-07T16:38:50.701Z,20.63
2018-04-07T16:40:42.480Z,20.66
2018-04-07T16:41:42.407Z,20.68
2018-04-07T16:43:34.209Z,20.64
2018-04-07T16:44:34.131Z,20.51
2018-04-07T16:46:25.916Z,20.57
2018-04-07T16:47:25.850Z,20.57
2018-04-07T16:49:17.616Z,20.63
2018-04-07T16:50:17.552Z,20.75
2018-04-07T16:52:09.444Z,20.83
2018-04-07T16:53:09.366Z,20.96
2018-04-07T16:55:01.125Z,20.73
2018-04-07T16:56:01.068Z,20.71
2018-04-07T16:57:52.884Z,20.57
2018-04-07T16:58:52.793Z,20.53
2018-04-07T17:00:44.736Z,20.51
2018-04-07T17:01:44.646Z,20.53
2018-04-07T17:03:36.420Z,20.33
2018-04-07T17:04:36.358Z,20.33
2018-04-07T17:06:28.162Z,20.27
2018-04-07T17:07:28.117Z,20.19
2018-04-07T17:09:19.867Z,20.17
2018-04-07T17:10:19.798Z,20.05
2018-04-07T17:12:11.581Z,20.04
2018-04-07T17:13:11.508Z,19.97
2018-04-07T17:15:03.318Z,19.95
2018-04-07T17:16:03.218Z,19.98
2018-04-07T17:17:55.029Z,19.97
2018-04-07T17:18:54.941Z,19.89
2018-04-07T17:20:46.695Z,19.82
2018-04-07T17:21:46.673Z,19.87
2018-04-07T17:23:38.419Z,19.78
2018-04-07T17:24:38.348Z,19.76
2018-04-07T17:26:30.110Z,19.72
2018-04-07T17:27:30.051Z,19.70
2018-04-07T17:29:21.878Z,19.62
2018-04-07T17:30:21.798Z,19.61
2018-04-07T17:32:13.596Z,19.60
2018-04-07T17:33:13.490Z,19.49
2018-04-07T17:35:05.307Z,19.52
2018-04-07T17:36:05.231Z,19.60
2018-04-07T17:37:57.017Z,19.55
2018-04-07T17:38:56.947Z,19.55
2018-04-07T17:40:48.767Z,19.49
2018-04-07T17:41:48.678Z,19.42
2018-04-07T17:43:40.463Z,19.23
2018-04-07T17:44:40.394Z,19.24
2018-04-07T17:46:32.171Z,19.13
2018-04-07T17:47:32.131Z,19.06
2018-04-07T17:49:23.902Z,19.09
2018-04-07T17:50:23.842Z,18.94
2018-04-07T17:52:15.693Z,18.91
2018-04-07T17:53:15.587Z,18.84
2018-04-07T17:55:07.419Z,18.75
2018-04-07T17:56:07.373Z,18.78
2018-04-07T17:57:59.149Z,18.86
2018-04-07T17:58:59.098Z,18.86
2018-04-07T18:00:50.835Z,18.68
2018-04-07T18:01:50.768Z,18.82
2018-04-07T18:03:42.573Z,18.74
2018-04-07T18:04:42.474Z,18.71
2018-04-07T18:06:34.239Z,18.60
2018-04-07T18:07:34.218Z,18.57
2018-04-07T18:09:25.970Z,18.51
2018-04-07T18:10:25.908Z,18.51
2018-04-07T18:12:17.719Z,18.41
2018-04-07T18:13:17.658Z,18.39
2018-04-07T18:15:09.458Z,18.36
2018-04-07T18:16:09.400Z,18.42
2018-04-07T18:18:01.166Z,18.36
2018-04-07T18:19:01.094Z,18.29
2018-04-07T18:20:52.859Z,18.29
2018-04-07T18:21:52.799Z,18.28
2018-04-07T18:23:44.582Z,18.20
2018-04-07T18:24:44.514Z,18.11
2018-04-07T18:26:36.280Z,18.17
2018-04-07T18:27:36.223Z,18.07
2018-04-07T18:29:27.986Z,17.98
2018-04-07T18:30:27.914Z,18.09
2018-04-07T18:32:19.696Z,17.92
2018-04-07T18:33:19.665Z,17.84
2018-04-07T18:35:11.428Z,17.86
2018-04-07T18:36:11.355Z,17.80
2018-04-07T18:38:03.212Z,17.76